sensor_id;sensor_type;location;lat;lon;timestamp;pressure;altitude;pressure_sealevel;temperature;humidity
46928;BME280;32668;51.306;-0.576;2022-08-19T00:00:31;100607.50;;;18.78;100.00
46928;BME280;32668;51.306;-0.576;2022-08-19T00:02:57;100606.63;;;18.76;100.00
46928;BME280;32668;51.306;-0.576;2022-08-19T00:05:22;100606.66;;;18.70;100.00
46928;BME280;32668;51.306;-0.576;2022-08-19T00:08:13;100604.00;;;18.71;100.00
46928;BME280;32668;51.306;-0.576;2022-08-19T00:10:38;100610.13;;;18.74;100.00
46928;BME280;32668;51.306;-0.576;2022-08-19T00:13:04;100604.03;;;18.70;100.00
46928;BME280;32668;51.306;-0.576;2022-08-19T00:15:29;100602.25;;;18.70;100.00
46928;BME280;32668;51.306;-0.576;2022-08-19T00:17:55;100596.97;;;18.70;100.00
46928;BME280;32668;51.306;-0.576;2022-08-19T00:20:21;100593.50;;;18.70;100.00
46928;BME280;32668;51.306;-0.576;2022-08-19T00:22:47;100586.50;;;18.67;100.00
46928;BME280;32668;51.306;-0.576;2022-08-19T00:25:14;100583.00;;;18.64;100.00
46928;BME280;32668;51.306;-0.576;2022-08-19T00:27:40;100587.38;;;18.66;100.00
46928;BME280;32668;51.306;-0.576;2022-08-19T00:30:07;100590.00;;;18.66;100.00
46928;BME280;32668;51.306;-0.576;2022-08-19T00:32:32;100584.75;;;18.66;100.00
46928;BME280;32668;51.306;-0.576;2022-08-19T00:34:59;100581.22;;;18.66;100.00
46928;BME280;32668;51.306;-0.576;2022-08-19T00:37:25;100582.94;;;18.68;100.00
46928;BME280;32668;51.306;-0.576;2022-08-19T00:39:52;100579.41;;;18.69;100.00
46928;BME280;32668;51.306;-0.576;2022-08-19T00:42:19;100589.88;;;18.79;100.00
46928;BME280;32668;51.306;-0.576;2022-08-19T00:44:46;100589.06;;;18.70;100.00
46928;BME280;32668;51.306;-0.576;2022-08-19T00:47:12;100583.81;;;18.70;100.00
46928;BME280;32668;51.306;-0.576;2022-08-19T00:49:42;100577.66;;;18.70;100.00
46928;BME280;32668;51.306;-0.576;2022-08-19T00:52:21;100570.59;;;18.74;100.00
46928;BME280;32668;51.306;-0.576;2022-08-19T00:54:48;100573.28;;;18.69;100.00
46928;BME280;32668;51.306;-0.576;2022-08-19T00:57:18;100570.63;;;18.72;100.00
46928;BME280;32668;51.306;-0.576;2022-08-19T00:59:46;100570.59;;;18.74;100.00
46928;BME280;32668;51.306;-0.576;2022-08-19T01:02:15;100566.16;;;18.79;100.00
46928;BME280;32668;51.306;-0.576;2022-08-19T01:04:40;100560.88;;;18.79;100.00
46928;BME280;32668;51.306;-0.576;2022-08-19T01:07:07;100571.44;;;18.79;100.00
46928;BME280;32668;51.306;-0.576;2022-08-19T01:09:33;100568.81;;;18.80;100.00
46928;BME280;32668;51.306;-0.576;2022-08-19T01:11:59;100567.09;;;18.76;100.00
46928;BME280;32668;51.306;-0.576;2022-08-19T01:14:24;100568.84;;;18.77;100.00
46928;BME280;32668;51.306;-0.576;2022-08-19T01:16:51;100563.56;;;18.77;100.00
46928;BME280;32668;51.306;-0.576;2022-08-19T01:19:29;100573.22;;;18.77;100.00
46928;BME280;32668;51.306;-0.576;2022-08-19T01:22:02;100567.97;;;18.75;100.00
46928;BME280;32668;51.306;-0.576;2022-08-19T01:24:28;100568.81;;;18.80;100.00
46928;BME280;32668;51.306;-0.576;2022-08-19T01:26:54;100567.88;;;18.83;100.00
46928;BME280;32668;51.306;-0.576;2022-08-19T01:29:19;100571.34;;;18.86;100.00
46928;BME280;32668;51.306;-0.576;2022-08-19T01:31:45;100577.53;;;18.87;100.00
46928;BME280;32668;51.306;-0.576;2022-08-19T01:34:10;100566.09;;;18.86;100.00
46928;BME280;32668;51.306;-0.576;2022-08-19T01:36:39;100576.66;;;18.85;100.00
46928;BME280;32668;51.306;-0.576;2022-08-19T01:39:10;100574.91;;;18.84;100.00
46928;BME280;32668;51.306;-0.576;2022-08-19T01:41:37;100576.63;;;18.86;100.00
46928;BME280;32668;51.306;-0.576;2022-08-19T01:44:03;100581.00;;;18.87;100.00
46928;BME280;32668;51.306;-0.576;2022-08-19T01:46:30;100579.28;;;18.85;100.00
46928;BME280;32668;51.306;-0.576;2022-08-19T01:48:55;100566.97;;;18.85;100.00
46928;BME280;32668;51.306;-0.576;2022-08-19T01:51:21;100566.16;;;18.79;100.00
46928;BME280;32668;51.306;-0.576;2022-08-19T01:53:49;100565.34;;;18.75;100.00
46928;BME280;32668;51.306;-0.576;2022-08-19T01:56:15;100562.72;;;18.72;100.00
46928;BME280;32668;51.306;-0.576;2022-08-19T01:58:47;100569.72;;;18.71;100.00
46928;BME280;32668;51.306;-0.576;2022-08-19T02:01:14;100560.09;;;18.69;100.00
46928;BME280;32668;51.306;-0.576;2022-08-19T02:03:40;100551.31;;;18.68;100.00
46928;BME280;32668;51.306;-0.576;2022-08-19T02:06:05;100564.50;;;18.67;100.00
46928;BME280;32668;51.306;-0.576;2022-08-19T02:08:33;100567.97;;;18.74;100.00
46928;BME280;32668;51.306;-0.576;2022-08-19T02:11:00;100573.19;;;18.80;100.00
46928;BME280;32668;51.306;-0.576;2022-08-19T02:13:26;100571.34;;;18.86;100.00
46928;BME280;32668;51.306;-0.576;2022-08-19T02:15:51;100571.38;;;18.83;100.00
46928;BME280;32668;51.306;-0.576;2022-08-19T02:18:17;100569.63;;;18.87;100.00
46928;BME280;32668;51.306;-0.576;2022-08-19T02:20:43;100576.63;;;18.86;100.00
46928;BME280;32668;51.306;-0.576;2022-08-19T02:23:11;100571.38;;;18.83;100.00
46928;BME280;32668;51.306;-0.576;2022-08-19T02:25:36;100568.81;;;18.80;100.00
46928;BME280;32668;51.306;-0.576;2022-08-19T02:28:02;100569.69;;;18.78;100.00
46928;BME280;32668;51.306;-0.576;2022-08-19T02:30:28;100567.09;;;18.76;100.00
46928;BME280;32668;51.306;-0.576;2022-08-19T02:32:53;100565.31;;;18.77;100.00
46928;BME280;32668;51.306;-0.576;2022-08-19T02:35:19;100567.06;;;18.75;100.00
46928;BME280;32668;51.306;-0.576;2022-08-19T02:37:44;100570.59;;;18.74;100.00
46928;BME280;32668;51.306;-0.576;2022-08-19T02:40:29;100575.88;;;18.75;100.00
46928;BME280;32668;51.306;-0.576;2022-08-19T02:42:55;100576.72;;;18.76;100.00
46928;BME280;32668;51.306;-0.576;2022-08-19T02:45:20;100575.00;;;18.76;100.00
46928;BME280;32668;51.306;-0.576;2022-08-19T02:47:47;100579.34;;;18.79;100.00
46928;BME280;32668;51.306;-0.576;2022-08-19T02:50:12;100573.19;;;18.80;100.00
46928;BME280;32668;51.306;-0.576;2022-08-19T02:52:38;100577.59;;;18.79;100.00
46928;BME280;32668;51.306;-0.576;2022-08-19T02:55:05;100581.09;;;18.80;100.00
46928;BME280;32668;51.306;-0.576;2022-08-19T02:57:30;100584.63;;;18.76;100.00
46928;BME280;32668;51.306;-0.576;2022-08-19T03:00:00;100578.50;;;18.74;100.00
46928;BME280;32668;51.306;-0.576;2022-08-19T03:02:26;100577.59;;;18.78;100.00
46928;BME280;32668;51.306;-0.576;2022-08-19T03:04:52;100581.97;;;18.79;100.00
46928;BME280;32668;51.306;-0.576;2022-08-19T03:07:18;100589.84;;;18.85;100.00
46928;BME280;32668;51.306;-0.576;2022-08-19T03:09:44;100582.81;;;18.84;100.00
46928;BME280;32668;51.306;-0.576;2022-08-19T03:12:10;100581.09;;;18.81;100.00
46928;BME280;32668;51.306;-0.576;2022-08-19T03:14:36;100588.09;;;18.84;100.00
46928;BME280;32668;51.306;-0.576;2022-08-19T03:17:02;100582.91;;;18.76;100.00
46928;BME280;32668;51.306;-0.576;2022-08-19T03:19:30;100583.75;;;18.77;100.00
46928;BME280;32668;51.306;-0.576;2022-08-19T03:21:56;100582.88;;;18.79;100.00
46928;BME280;32668;51.306;-0.576;2022-08-19T03:24:22;100586.38;;;18.77;100.00
46928;BME280;32668;51.306;-0.576;2022-08-19T03:26:50;100582.88;;;18.75;100.00
46928;BME280;32668;51.306;-0.576;2022-08-19T03:29:18;100587.31;;;18.71;100.00
46928;BME280;32668;51.306;-0.576;2022-08-19T03:31:45;100582.94;;;18.68;100.00
46928;BME280;32668;51.306;-0.576;2022-08-19T03:34:17;100594.41;;;18.66;100.00
46928;BME280;32668;51.306;-0.576;2022-08-19T03:36:43;100596.22;;;18.59;100.00
46928;BME280;32668;51.306;-0.576;2022-08-19T03:39:10;100595.34;;;18.55;100.00
46928;BME280;32668;51.306;-0.576;2022-08-19T03:41:37;100592.72;;;18.54;100.00
46928;BME280;32668;51.306;-0.576;2022-08-19T03:44:03;100595.41;;;18.52;100.00
46928;BME280;32668;51.306;-0.576;2022-08-19T03:46:31;100591.03;;;18.47;100.00
46928;BME280;32668;51.306;-0.576;2022-08-19T03:48:59;100589.28;;;18.47;100.00
46928;BME280;32668;51.306;-0.576;2022-08-19T03:51:27;100577.88;;;18.44;100.00
46928;BME280;32668;51.306;-0.576;2022-08-19T03:53:54;100584.94;;;18.40;100.00
46928;BME280;32668;51.306;-0.576;2022-08-19T03:56:20;100592.88;;;18.38;100.00
46928;BME280;32668;51.306;-0.576;2022-08-19T03:58:46;100590.19;;;18.41;100.00
46928;BME280;32668;51.306;-0.576;2022-08-19T04:01:17;100597.22;;;18.41;100.00
46928;BME280;32668;51.306;-0.576;2022-08-19T04:03:43;100607.72;;;18.46;100.00
46928;BME280;32668;51.306;-0.576;2022-08-19T04:06:20;100597.19;;;18.46;100.00
46928;BME280;32668;51.306;-0.576;2022-08-19T04:08:49;100607.69;;;18.49;100.00
46928;BME280;32668;51.306;-0.576;2022-08-19T04:11:18;100603.28;;;18.51;100.00
46928;BME280;32668;51.306;-0.576;2022-08-19T04:13:45;100605.06;;;18.50;100.00
46928;BME280;32668;51.306;-0.576;2022-08-19T04:16:11;100605.06;;;18.50;100.00
46928;BME280;32668;51.306;-0.576;2022-08-19T04:18:39;100601.56;;;18.47;100.00
46928;BME280;32668;51.306;-0.576;2022-08-19T04:21:05;100609.50;;;18.45;100.00
46928;BME280;32668;51.306;-0.576;2022-08-19T04:23:31;100605.09;;;18.46;100.00
46928;BME280;32668;51.306;-0.576;2022-08-19T04:25:57;100606.84;;;18.47;100.00
46928;BME280;32668;51.306;-0.576;2022-08-19T04:28:25;100601.56;;;18.47;100.00
46928;BME280;32668;51.306;-0.576;2022-08-19T04:30:53;100599.84;;;18.44;100.00
46928;BME280;32668;51.306;-0.576;2022-08-19T04:33:23;100603.41;;;18.37;100.00
46928;BME280;32668;51.306;-0.576;2022-08-19T04:35:51;100599.91;;;18.36;100.00
46928;BME280;32668;51.306;-0.576;2022-08-19T04:38:20;100606.91;;;18.37;100.00
46928;BME280;32668;51.306;-0.576;2022-08-19T04:40:50;100612.13;;;18.40;100.00
46928;BME280;32668;51.306;-0.576;2022-08-19T04:43:37;100607.72;;;18.46;100.00
46928;BME280;32668;51.306;-0.576;2022-08-19T04:46:08;100620.09;;;18.34;100.00
46928;BME280;32668;51.306;-0.576;2022-08-19T04:48:35;100616.59;;;18.35;100.00
46928;BME280;32668;51.306;-0.576;2022-08-19T04:51:06;100623.59;;;18.38;100.00
46928;BME280;32668;51.306;-0.576;2022-08-19T04:53:33;100628.88;;;18.35;100.00
46928;BME280;32668;51.306;-0.576;2022-08-19T04:56:08;100628.88;;;18.39;100.00
46928;BME280;32668;51.306;-0.576;2022-08-19T04:58:35;100631.50;;;18.36;100.00
46928;BME280;32668;51.306;-0.576;2022-08-19T05:01:01;100639.41;;;18.36;100.00
46928;BME280;32668;51.306;-0.576;2022-08-19T05:03:26;100639.41;;;18.36;100.00
46928;BME280;32668;51.306;-0.576;2022-08-19T05:05:52;100642.06;;;18.36;100.00
46928;BME280;32668;51.306;-0.576;2022-08-19T05:08:20;100647.31;;;18.36;100.00
46928;BME280;32668;51.306;-0.576;2022-08-19T05:10:50;100651.69;;;18.39;100.00
46928;BME280;32668;51.306;-0.576;2022-08-19T05:13:18;100654.28;;;18.45;100.00
46928;BME280;32668;51.306;-0.576;2022-08-19T05:15:44;100656.03;;;18.46;100.00
46928;BME280;32668;51.306;-0.576;2022-08-19T05:18:10;100648.13;;;18.49;100.00
46928;BME280;32668;51.306;-0.576;2022-08-19T05:20:53;100654.22;;;18.53;100.00
46928;BME280;32668;51.306;-0.576;2022-08-19T05:23:38;100651.59;;;18.53;100.00
46928;BME280;32668;51.306;-0.576;2022-08-19T05:26:04;100657.75;;;18.49;100.00
46928;BME280;32668;51.306;-0.576;2022-08-19T05:28:29;100649.84;;;18.52;100.00
46928;BME280;32668;51.306;-0.576;2022-08-19T05:30:55;100654.22;;;18.56;100.00
46928;BME280;32668;51.306;-0.576;2022-08-19T05:33:21;100647.19;;;18.58;100.00
46928;BME280;32668;51.306;-0.576;2022-08-19T05:35:47;100653.28;;;18.63;100.00
46928;BME280;32668;51.306;-0.576;2022-08-19T05:38:16;100647.06;;;18.75;100.00
46928;BME280;32668;51.306;-0.576;2022-08-19T05:40:42;100647.03;;;18.77;100.00
46928;BME280;32668;51.306;-0.576;2022-08-19T05:43:12;100635.53;;;18.85;100.00
46928;BME280;32668;51.306;-0.576;2022-08-19T05:45:41;100642.56;;;18.85;100.00
46928;BME280;32668;51.306;-0.576;2022-08-19T05:48:07;100642.66;;;18.77;100.00
46928;BME280;32668;51.306;-0.576;2022-08-19T05:50:36;100642.69;;;18.69;100.00
46928;BME280;32668;51.306;-0.576;2022-08-19T05:53:02;100642.66;;;18.74;100.00
46928;BME280;32668;51.306;-0.576;2022-08-19T05:55:27;100649.69;;;18.75;100.00
46928;BME280;32668;51.306;-0.576;2022-08-19T05:57:52;100652.38;;;18.69;100.00
46928;BME280;32668;51.306;-0.576;2022-08-19T06:00:18;100651.44;;;18.71;100.00
46928;BME280;32668;51.306;-0.576;2022-08-19T06:02:43;100661.09;;;18.76;100.00
46928;BME280;32668;51.306;-0.576;2022-08-19T06:05:09;100667.22;;;18.78;100.00
46928;BME280;32668;51.306;-0.576;2022-08-19T06:07:36;100672.50;;;18.78;100.00
46928;BME280;32668;51.306;-0.576;2022-08-19T06:10:05;100665.53;;;18.72;100.00
46928;BME280;32668;51.306;-0.576;2022-08-19T06:12:32;100669.97;;;18.65;100.00
46928;BME280;32668;51.306;-0.576;2022-08-19T06:15:03;100672.59;;;18.64;100.00
46928;BME280;32668;51.306;-0.576;2022-08-19T06:17:30;100672.59;;;18.65;100.00
46928;BME280;32668;51.306;-0.576;2022-08-19T06:19:56;100671.72;;;18.66;100.00
46928;BME280;32668;51.306;-0.576;2022-08-19T06:22:22;100665.53;;;18.69;100.00
46928;BME280;32668;51.306;-0.576;2022-08-19T06:24:48;100676.94;;;18.74;100.00
46928;BME280;32668;51.306;-0.576;2022-08-19T06:27:18;100672.53;;;18.71;100.00
46928;BME280;32668;51.306;-0.576;2022-08-19T06:29:43;100669.91;;;18.71;100.00
46928;BME280;32668;51.306;-0.576;2022-08-19T06:32:08;100679.56;;;18.74;100.00
46928;BME280;32668;51.306;-0.576;2022-08-19T06:34:34;100678.72;;;18.72;100.00
46928;BME280;32668;51.306;-0.576;2022-08-19T06:37:00;100672.56;;;18.68;100.00
46928;BME280;32668;51.306;-0.576;2022-08-19T06:39:30;100673.47;;;18.66;100.00
46928;BME280;32668;51.306;-0.576;2022-08-19T06:42:00;100678.72;;;18.69;100.00
46928;BME280;32668;51.306;-0.576;2022-08-19T06:44:27;100672.63;;;18.62;100.00
46928;BME280;32668;51.306;-0.576;2022-08-19T06:46:54;100680.53;;;18.65;100.00
46928;BME280;32668;51.306;-0.576;2022-08-19T06:49:20;100675.19;;;18.68;100.00
46928;BME280;32668;51.306;-0.576;2022-08-19T06:51:47;100681.31;;;18.75;100.00
46928;BME280;32668;51.306;-0.576;2022-08-19T06:54:15;100686.53;;;18.83;100.00
46928;BME280;32668;51.306;-0.576;2022-08-19T06:56:41;100682.88;;;19.07;100.00
46928;BME280;32668;51.306;-0.576;2022-08-19T06:59:13;100679.78;;;19.54;100.00
46928;BME280;32668;51.306;-0.576;2022-08-19T07:01:45;100683.28;;;19.54;100.00
46928;BME280;32668;51.306;-0.576;2022-08-19T07:04:13;100688.50;;;19.60;100.00
46928;BME280;32668;51.306;-0.576;2022-08-19T07:06:39;100684.28;;;19.44;100.00
46928;BME280;32668;51.306;-0.576;2022-08-19T07:09:06;100685.28;;;19.30;100.00
46928;BME280;32668;51.306;-0.576;2022-08-19T07:11:32;100681.72;;;19.35;100.00
46928;BME280;32668;51.306;-0.576;2022-08-19T07:13:58;100686.19;;;19.26;100.00
46928;BME280;32668;51.306;-0.576;2022-08-19T07:16:24;100692.41;;;19.21;100.00
46928;BME280;32668;51.306;-0.576;2022-08-19T07:18:51;100686.28;;;19.15;100.00
46928;BME280;32668;51.306;-0.576;2022-08-19T07:21:23;100683.63;;;19.20;100.00
46928;BME280;32668;51.306;-0.576;2022-08-19T07:23:50;100688.06;;;19.15;100.00
46928;BME280;32668;51.306;-0.576;2022-08-19T07:26:18;100691.59;;;19.14;100.00
46928;BME280;32668;51.306;-0.576;2022-08-19T07:28:45;100688.06;;;19.15;100.00
46928;BME280;32668;51.306;-0.576;2022-08-19T07:31:13;100693.34;;;19.15;100.00
46928;BME280;32668;51.306;-0.576;2022-08-19T07:33:40;100693.25;;;19.24;100.00
46928;BME280;32668;51.306;-0.576;2022-08-19T07:36:09;100703.59;;;19.48;100.00
46928;BME280;32668;51.306;-0.576;2022-08-19T07:38:37;100698.25;;;19.54;100.00
46928;BME280;32668;51.306;-0.576;2022-08-19T07:41:04;100697.34;;;19.56;100.00
46928;BME280;32668;51.306;-0.576;2022-08-19T07:43:29;100694.81;;;19.45;100.00
46928;BME280;32668;51.306;-0.576;2022-08-19T07:45:55;100696.56;;;19.48;100.00
46928;BME280;32668;51.306;-0.576;2022-08-19T07:48:24;100700.94;;;19.49;100.00
46928;BME280;32668;51.306;-0.576;2022-08-19T07:50:55;100702.63;;;19.53;100.00
46928;BME280;32668;51.306;-0.576;2022-08-19T07:53:23;100704.47;;;19.46;100.00
46928;BME280;32668;51.306;-0.576;2022-08-19T07:55:48;100705.41;;;19.44;100.00
46928;BME280;32668;51.306;-0.576;2022-08-19T07:58:16;100708.13;;;19.35;100.00
46928;BME280;32668;51.306;-0.576;2022-08-19T08:00:43;100709.94;;;19.28;100.00
46928;BME280;32668;51.306;-0.576;2022-08-19T08:03:09;100710.78;;;19.28;100.00
46928;BME280;32668;51.306;-0.576;2022-08-19T08:05:35;100709.13;;;19.20;100.00
46928;BME280;32668;51.306;-0.576;2022-08-19T08:08:19;100714.47;;;19.12;100.00
46928;BME280;32668;51.306;-0.576;2022-08-19T08:10:57;100716.28;;;19.05;100.00
46928;BME280;32668;51.306;-0.576;2022-08-19T08:13:23;100716.28;;;19.04;100.00
46928;BME280;32668;51.306;-0.576;2022-08-19T08:15:49;100720.69;;;19.01;100.00
46928;BME280;32668;51.306;-0.576;2022-08-19T08:18:16;100716.34;;;18.99;100.00
46928;BME280;32668;51.306;-0.576;2022-08-19T08:20:42;100718.94;;;19.00;100.00
46928;BME280;32668;51.306;-0.576;2022-08-19T08:23:07;100718.97;;;18.99;100.00
46928;BME280;32668;51.306;-0.576;2022-08-19T08:25:51;100720.63;;;19.11;100.00
46928;BME280;32668;51.306;-0.576;2022-08-19T08:28:18;100727.59;;;19.20;100.00
46928;BME280;32668;51.306;-0.576;2022-08-19T08:30:44;100728.34;;;19.33;100.00
46928;BME280;32668;51.306;-0.576;2022-08-19T08:33:13;100728.16;;;19.56;100.00
46928;BME280;32668;51.306;-0.576;2022-08-19T08:35:39;100725.44;;;19.64;100.00
46928;BME280;32668;51.306;-0.576;2022-08-19T08:38:07;100719.25;;;19.65;100.00
46928;BME280;32668;51.306;-0.576;2022-08-19T08:45:45;100728.00;;;19.68;100.00
46928;BME280;32668;51.306;-0.576;2022-08-19T08:48:44;100725.25;;;19.81;100.00
46928;BME280;32668;51.306;-0.576;2022-08-19T08:51:43;100723.47;;;19.81;100.00
46928;BME280;32668;51.306;-0.576;2022-08-19T08:54:10;100723.41;;;19.90;100.00
46928;BME280;32668;51.306;-0.576;2022-08-19T08:56:38;100723.31;;;20.00;100.00
46928;BME280;32668;51.306;-0.576;2022-08-19T08:59:07;100718.75;;;20.13;100.00
46928;BME280;32668;51.306;-0.576;2022-08-19T09:01:35;100711.72;;;20.12;100.00
46928;BME280;32668;51.306;-0.576;2022-08-19T09:04:04;100716.94;;;20.18;100.00
46928;BME280;32668;51.306;-0.576;2022-08-19T09:06:38;100711.53;;;20.26;99.26
46928;BME280;32668;51.306;-0.576;2022-08-19T09:09:17;100719.69;;;20.09;100.00
46928;BME280;32668;51.306;-0.576;2022-08-19T09:16:59;100720.44;;;20.18;100.00
46928;BME280;32668;51.306;-0.576;2022-08-19T09:19:25;100724.72;;;20.27;100.00
46928;BME280;32668;51.306;-0.576;2022-08-19T09:21:50;100717.53;;;20.37;100.00
46928;BME280;32668;51.306;-0.576;2022-08-19T09:24:16;100712.31;;;20.34;100.00
46928;BME280;32668;51.306;-0.576;2022-08-19T09:26:41;100712.38;;;20.31;100.00
46928;BME280;32668;51.306;-0.576;2022-08-19T09:29:09;100719.53;;;20.21;100.00
46928;BME280;32668;51.306;-0.576;2022-08-19T09:31:35;100724.94;;;20.12;100.00
46928;BME280;32668;51.306;-0.576;2022-08-19T09:34:00;100723.00;;;20.25;100.00
46928;BME280;32668;51.306;-0.576;2022-08-19T09:36:30;100719.56;;;20.18;99.46
46928;BME280;32668;51.306;-0.576;2022-08-19T09:38:58;100723.13;;;20.15;98.26
46928;BME280;32668;51.306;-0.576;2022-08-19T09:41:25;100725.66;;;20.25;98.52
46928;BME280;32668;51.306;-0.576;2022-08-19T09:43:53;100728.13;;;20.37;97.39
46928;BME280;32668;51.306;-0.576;2022-08-19T09:46:22;100733.34;;;20.42;96.27
46928;BME280;32668;51.306;-0.576;2022-08-19T09:48:49;100727.22;;;20.40;97.22
46928;BME280;32668;51.306;-0.576;2022-08-19T09:51:18;100727.22;;;20.38;97.02
46928;BME280;32668;51.306;-0.576;2022-08-19T09:53:45;100739.56;;;20.38;99.18
46928;BME280;32668;51.306;-0.576;2022-08-19T09:56:12;100741.56;;;20.18;98.21
46928;BME280;32668;51.306;-0.576;2022-08-19T09:58:39;100745.97;;;20.21;98.95
46928;BME280;32668;51.306;-0.576;2022-08-19T10:01:06;100741.44;;;20.29;98.26
46928;BME280;32668;51.306;-0.576;2022-08-19T10:03:34;100741.44;;;20.31;97.03
46928;BME280;32668;51.306;-0.576;2022-08-19T10:06:02;100732.41;;;20.47;95.54
46928;BME280;32668;51.306;-0.576;2022-08-19T10:08:31;100732.81;;;20.82;95.08
46928;BME280;32668;51.306;-0.576;2022-08-19T10:10:58;100730.97;;;20.89;89.05
46928;BME280;32668;51.306;-0.576;2022-08-19T10:13:27;100727.34;;;20.93;87.03
46928;BME280;32668;51.306;-0.576;2022-08-19T10:15:55;100727.75;;;21.24;85.97
46928;BME280;32668;51.306;-0.576;2022-08-19T10:18:23;100720.69;;;21.23;83.36
46928;BME280;32668;51.306;-0.576;2022-08-19T10:20:50;100723.34;;;21.22;83.35
46928;BME280;32668;51.306;-0.576;2022-08-19T10:23:17;100728.53;;;21.28;85.27
46928;BME280;32668;51.306;-0.576;2022-08-19T10:25:42;100732.41;;;21.60;81.91
46928;BME280;32668;51.306;-0.576;2022-08-19T10:28:09;100730.75;;;21.54;79.60
46928;BME280;32668;51.306;-0.576;2022-08-19T10:30:40;100739.53;;;21.57;79.61
46928;BME280;32668;51.306;-0.576;2022-08-19T10:33:07;100739.03;;;21.34;77.28
46928;BME280;32668;51.306;-0.576;2022-08-19T10:35:33;100732.78;;;21.38;77.16
46928;BME280;32668;51.306;-0.576;2022-08-19T10:37:59;100734.69;;;21.32;75.50
46928;BME280;32668;51.306;-0.576;2022-08-19T10:40:27;100747.25;;;21.19;73.99
46928;BME280;32668;51.306;-0.576;2022-08-19T10:42:54;100735.91;;;21.09;72.45
46928;BME280;32668;51.306;-0.576;2022-08-19T10:45:21;100747.91;;;21.30;72.59
46928;BME280;32668;51.306;-0.576;2022-08-19T10:47:50;100745.84;;;21.48;73.80
46928;BME280;32668;51.306;-0.576;2022-08-19T10:50:16;100744.03;;;21.51;72.65
46928;BME280;32668;51.306;-0.576;2022-08-19T10:53:03;100753.13;;;21.35;70.51
46928;BME280;32668;51.306;-0.576;2022-08-19T10:55:29;100752.28;;;21.33;71.30
46928;BME280;32668;51.306;-0.576;2022-08-19T10:58:17;100747.84;;;21.35;66.76
46928;BME280;32668;51.306;-0.576;2022-08-19T11:00:43;100757.38;;;21.45;67.15
46928;BME280;32668;51.306;-0.576;2022-08-19T11:03:15;100757.34;;;21.47;66.05
46928;BME280;32668;51.306;-0.576;2022-08-19T11:05:41;100755.78;;;21.35;67.12
46928;BME280;32668;51.306;-0.576;2022-08-19T11:08:08;100762.66;;;21.45;65.06
46928;BME280;32668;51.306;-0.576;2022-08-19T11:10:36;100756.75;;;21.29;61.99
46928;BME280;32668;51.306;-0.576;2022-08-19T11:13:02;100756.75;;;21.29;61.75
46928;BME280;32668;51.306;-0.576;2022-08-19T11:15:28;100760.41;;;21.22;59.70
46928;BME280;32668;51.306;-0.576;2022-08-19T11:17:54;100754.81;;;21.40;58.84
46928;BME280;32668;51.306;-0.576;2022-08-19T11:20:20;100754.69;;;21.48;59.78
46928;BME280;32668;51.306;-0.576;2022-08-19T11:22:47;100755.47;;;21.53;59.36
46928;BME280;32668;51.306;-0.576;2022-08-19T11:25:13;100769.25;;;21.74;58.50
46928;BME280;32668;51.306;-0.576;2022-08-19T11:27:42;100764.72;;;21.81;57.34
46928;BME280;32668;51.306;-0.576;2022-08-19T11:30:09;100768.03;;;21.92;55.68
46928;BME280;32668;51.306;-0.576;2022-08-19T11:32:35;100764.06;;;21.68;53.60
46928;BME280;32668;51.306;-0.576;2022-08-19T11:35:00;100764.91;;;21.70;52.83
46928;BME280;32668;51.306;-0.576;2022-08-19T11:37:26;100757.59;;;21.84;53.67
46928;BME280;32668;51.306;-0.576;2022-08-19T11:39:52;100764.44;;;21.96;54.57
46928;BME280;32668;51.306;-0.576;2022-08-19T11:42:18;100763.31;;;22.08;53.43
46928;BME280;32668;51.306;-0.576;2022-08-19T11:45:02;100769.84;;;21.90;50.85
46928;BME280;32668;51.306;-0.576;2022-08-19T11:47:29;100758.88;;;21.62;51.52
46928;BME280;32668;51.306;-0.576;2022-08-19T11:49:56;100755.16;;;21.72;52.58
46928;BME280;32668;51.306;-0.576;2022-08-19T11:52:21;100765.84;;;21.67;51.86
46928;BME280;32668;51.306;-0.576;2022-08-19T11:54:46;100761.31;;;21.74;53.61
46928;BME280;32668;51.306;-0.576;2022-08-19T11:59:39;100761.69;;;22.01;50.41
46928;BME280;32668;51.306;-0.576;2022-08-19T12:02:05;100760.72;;;22.04;50.64
46928;BME280;32668;51.306;-0.576;2022-08-19T12:04:30;100766.53;;;22.24;51.40
46928;BME280;32668;51.306;-0.576;2022-08-19T12:06:56;100763.03;;;22.22;49.66
46928;BME280;32668;51.306;-0.576;2022-08-19T12:09:21;100767.38;;;22.26;50.18
46928;BME280;32668;51.306;-0.576;2022-08-19T12:11:47;100774.00;;;22.48;48.41
46928;BME280;32668;51.306;-0.576;2022-08-19T12:14:13;100755.19;;;22.99;49.14
46928;BME280;32668;51.306;-0.576;2022-08-19T12:16:39;100762.59;;;23.23;46.59
46928;BME280;32668;51.306;-0.576;2022-08-19T12:19:06;100763.13;;;23.37;47.47
46928;BME280;32668;51.306;-0.576;2022-08-19T12:21:34;100772.16;;;23.64;45.55
46928;BME280;32668;51.306;-0.576;2022-08-19T12:24:01;100763.97;;;23.72;45.32
46928;BME280;32668;51.306;-0.576;2022-08-19T12:26:28;100769.47;;;24.01;43.84
46928;BME280;32668;51.306;-0.576;2022-08-19T12:28:54;100761.53;;;24.29;44.00
46928;BME280;32668;51.306;-0.576;2022-08-19T12:31:20;100763.56;;;24.21;42.22
46928;BME280;32668;51.306;-0.576;2022-08-19T12:33:46;100755.38;;;23.96;43.77
46928;BME280;32668;51.306;-0.576;2022-08-19T12:36:14;100762.72;;;23.53;43.72
46928;BME280;32668;51.306;-0.576;2022-08-19T12:38:41;100753.53;;;23.66;44.72
46928;BME280;32668;51.306;-0.576;2022-08-19T12:41:09;100758.81;;;24.01;44.35
46928;BME280;32668;51.306;-0.576;2022-08-19T12:43:35;100754.84;;;23.83;43.45
46928;BME280;32668;51.306;-0.576;2022-08-19T12:46:02;100736.78;;;24.27;42.16
46928;BME280;32668;51.306;-0.576;2022-08-19T12:48:29;100746.09;;;24.72;41.06